Time;durP1;ratioP1;P1;durP2;ratioP2;P2;SDS_P1;SDS_P2;PMS_P1;PMS_P2;Temp;Humidity;BMP_temperature;BMP_pressure;BME280_temperature;BME280_humidity;BME280_pressure;Samples;Min_cycle;Max_cycle;Signal;HPM_P1;HPM_P2
2021/11/26 00:01:29;;;;;;;22.30;15.93;;;;;;;4.17;75.52;94248.47;833193;71;31790;-78
2021/11/26 00:16:18;;;;;;;25.27;16.67;;;;;;;4.14;76.50;94251.06;833329;71;28753;-78
2021/11/26 00:31:55;;;;;;;24.57;17.05;;;;;;;4.29;76.24;94240.48;824844;71;26023;-78
2021/11/26 00:46:29;;;;;;;24.77;17.37;;;;;;;4.34;75.85;94245.67;827376;71;32074;-80
2021/11/26 01:01:23;;;;;;;24.85;17.35;;;;;;;4.46;75.97;94222.89;826805;71;31806;-77
2021/11/26 01:16:09;;;;;;;28.62;16.40;;;;;;;4.46;75.53;94192.20;827749;71;29752;-77
2021/11/26 01:31:09;;;;;;;23.10;15.10;;;;;;;4.61;76.28;94163.15;827888;71;29132;-76
2021/11/26 01:46:20;;;;;;;24.92;15.60;;;;;;;4.72;75.42;94131.97;833486;71;32319;-79
2021/11/26 02:01:10;;;;;;;24.20;15.80;;;;;;;4.14;76.76;94113.98;833622;71;29281;-77
2021/11/26 02:16:14;;;;;;;21.77;15.60;;;;;;;4.35;76.21;94101.28;833480;71;31750;-79
2021/11/26 02:31:19;;;;;;;24.72;15.95;;;;;;;4.52;75.80;94074.28;828252;71;31858;-78
2021/11/26 02:46:09;;;;;;;25.55;15.53;;;;;;;4.56;75.75;94060.53;827714;71;29574;-80
2021/11/26 03:16:10;;;;;;;23.57;17.00;;;;;;;4.16;77.33;94011.44;827684;71;29709;-76
2021/11/26 03:31:09;;;;;;;25.40;16.35;;;;;;;4.47;76.72;94021.05;827740;71;29254;-77
2021/11/26 03:46:16;;;;;;;23.75;15.63;;;;;;;4.58;76.01;93997.41;826887;71;32317;-80
2021/11/26 04:01:08;;;;;;;21.82;14.20;;;;;;;4.39;76.11;93967.80;827552;71;28497;-78
2021/11/26 04:16:18;;;;;;;24.10;14.90;;;;;;;4.30;76.63;93932.50;823421;71;32729;-77
2021/11/26 04:31:09;;;;;;;20.43;14.30;;;;;;;4.32;77.48;93930.42;827684;71;29558;-77
2021/11/26 04:46:08;;;;;;;24.32;15.32;;;;;;;4.35;77.71;93940.27;828585;71;28915;-76
2021/11/26 05:01:12;;;;;;;23.62;15.53;;;;;;;4.32;78.35;93931.72;827401;71;29453;-78
2021/11/26 05:16:13;;;;;;;24.05;14.78;;;;;;;4.31;78.60;93902.88;793269;74;29872;-77
2021/11/26 05:31:14;;;;;;;24.65;15.50;;;;;;;3.88;80.75;93883.48;826958;71;31697;-77
2021/11/26 05:46:14;;;;;;;22.13;13.85;;;;;;;3.51;82.92;93892.30;833663;71;30329;-78
2021/11/26 06:01:14;;;;;;;24.82;14.50;;;;;;;3.45;83.66;93859.09;833318;71;33218;-77
2021/11/26 06:16:08;;;;;;;27.35;15.68;;;;;;;3.47;83.36;93822.00;828030;71;28762;-77
2021/11/26 06:31:14;;;;;;;24.98;13.45;;;;;;;3.73;82.05;93809.01;816878;71;33081;-78
2021/11/26 06:46:08;;;;;;;20.92;13.15;;;;;;;3.78;81.11;93829.77;818389;71;30010;-79
2021/11/26 07:01:10;;;;;;;21.87;14.50;;;;;;;3.81;80.57;93774.25;825649;71;30185;-76
2021/11/26 07:16:09;;;;;;;20.92;13.50;;;;;;;3.92;80.32;93767.21;825877;71;30544;-77
2021/11/26 07:31:30;;;;;;;29.70;14.75;;;;;;;4.05;79.44;93719.14;822861;71;33002;-77
2021/11/26 07:46:11;;;;;;;27.82;16.17;;;;;;;4.21;79.09;93705.59;816260;71;31516;-77
2021/11/26 08:01:13;;;;;;;22.52;14.68;;;;;;;4.11;78.93;93676.55;823611;71;33203;-77
2021/11/26 08:16:11;;;;;;;24.40;15.50;;;;;;;4.13;78.51;93647.20;824511;71;31101;-78
2021/11/26 08:31:09;;;;;;;24.67;16.23;;;;;;;4.15;78.56;93656.03;819355;71;30419;-78
2021/11/26 08:46:08;;;;;;;28.57;17.35;;;;;;;4.07;78.82;93611.17;824046;70;29459;-76
2021/11/26 09:16:09;;;;;;;27.17;17.45;;;;;;;4.03;81.22;93522.69;833555;71;29658;-75
2021/11/26 09:31:10;;;;;;;27.32;17.40;;;;;;;4.36;80.27;93470.52;833942;71;29406;-76
2021/11/26 09:46:17;;;;;;;24.02;14.75;;;;;;;4.64;79.06;93438.28;833485;71;33459;-77
2021/11/26 10:01:15;;;;;;;23.20;15.95;;;;;;;4.78;77.44;93354.70;833412;71;32655;-76
2021/11/26 10:16:12;;;;;;;25.10;14.85;;;;;;;4.97;77.23;93346.95;834378;71;30299;-76
2021/11/26 10:31:11;;;;;;;26.07;14.38;;;;;;;4.67;77.20;93311.73;827947;71;29732;-78
2021/11/26 11:01:14;;;;;;;17.40;11.85;;;;;;;4.89;75.71;93296.13;827963;71;29748;-79
2021/11/26 11:16:13;;;;;;;17.92;12.25;;;;;;;4.83;75.45;93276.47;828081;71;30212;-77
2021/11/26 11:31:15;;;;;;;16.85;13.15;;;;;;;4.84;75.44;93250.18;827941;71;32723;-76
2021/11/26 11:46:16;;;;;;;18.32;13.18;;;;;;;4.80;75.46;93237.51;828605;71;32757;-78
2021/11/26 12:01:22;;;;;;;17.67;13.95;;;;;;;4.92;75.21;93157.28;835260;71;33078;-78
2021/11/26 12:16:14;;;;;;;21.48;13.50;;;;;;;5.41;74.20;93207.96;825346;71;29843;-79
2021/11/26 12:31:11;;;;;;;17.37;12.88;;;;;;;5.69;73.17;93206.67;829450;71;30829;-79
2021/11/26 12:46:09;;;;;;;17.77;11.65;;;;;;;6.16;72.50;93171.44;829693;71;30207;-77
2021/11/26 13:01:11;;;;;;;19.80;13.38;;;;;;;7.31;68.80;93140.11;829577;71;30058;-77
2021/11/26 13:16:18;;;;;;;18.65;13.72;;;;;;;6.70;69.38;93145.52;829818;71;29732;-78
2021/11/26 13:31:19;;;;;;;16.60;12.18;;;;;;;6.49;69.96;93125.66;830401;71;32806;-77
2021/11/26 13:46:34;;;;;;;15.83;12.28;;;;;;;6.45;70.63;93123.41;834484;71;33134;-76
2021/11/26 14:01:09;;;;;;;15.60;13.00;;;;;;;6.50;70.55;93100.61;829112;71;29510;-77
2021/11/26 14:16:10;;;;;;;21.82;13.50;;;;;;;6.21;71.46;93084.09;822659;71;29635;-76
2021/11/26 14:31:09;;;;;;;15.78;12.07;;;;;;;6.13;72.20;93113.44;829888;71;29635;-77
2021/11/26 14:46:11;;;;;;;20.70;12.60;;;;;;;6.00;73.29;93059.81;829965;71;29738;-77
2021/11/26 15:16:08;;;;;;;22.00;13.80;;;;;;;6.08;73.44;93046.61;829973;71;30015;-77
2021/11/26 15:31:15;;;;;;;18.75;13.22;;;;;;;6.05;73.34;92980.05;829773;71;32619;-77
2021/11/26 15:46:09;;;;;;;18.30;13.43;;;;;;;5.94;73.90;93003.69;827897;71;30334;-76
2021/11/26 16:01:11;;;;;;;21.65;13.80;;;;;;;6.03;74.37;93079.28;827688;71;30202;-78
2021/11/26 16:16:10;;;;;;;22.42;16.42;;;;;;;6.00;74.38;93027.27;822183;71;30368;-78
2021/11/26 16:46:23;;;;;;;25.70;18.20;;;;;;;5.53;76.22;93021.47;818716;71;32861;-76
2021/11/26 17:01:14;;;;;;;29.00;19.67;;;;;;;5.41;77.03;93002.48;824840;71;30217;-79
2021/11/26 17:16:44;;;;;;;28.15;19.73;;;;;;;5.43;77.83;93047.69;790002;74;33500;-82
2021/11/26 17:31:31;;;;;;;31.40;19.90;;;;;;;5.32;78.23;93039.87;821071;71;33358;-77
2021/11/26 17:46:42;;;;;;;23.67;15.90;;;;;;;4.94;79.36;93013.53;834757;71;32792;-77
2021/11/26 18:01:38;;;;;;;25.23;16.20;;;;;;;5.30;79.46;93044.59;835258;70;32900;-78
2021/11/26 18:31:35;;;;;;;;;;;;;;;;;;;;;
2021/11/26 18:46:09;;;;;;;24.57;15.40;;;;;;;5.30;80.13;93021.19;827402;71;31023;-79
2021/11/26 19:01:09;;;;;;;26.57;16.95;;;;;;;5.51;79.88;92998.88;827819;71;29663;-76
2021/11/26 19:16:24;;;;;;;21.50;14.75;;;;;;;5.59;79.56;92992.22;832349;71;32770;-79
2021/11/26 19:31:16;;;;;;;27.48;18.42;;;;;;;5.54;79.75;92979.34;834074;71;30867;-80
2021/11/26 19:46:32;;;;;;;17.50;13.20;;;;;;;5.53;79.62;92998.06;820829;71;32715;-78
2021/11/26 20:01:51;;;;;;;19.67;14.73;;;;;;;5.65;79.80;93011.09;815369;72;31881;-79
2021/11/26 20:16:29;;;;;;;20.80;14.00;;;;;;;5.52;79.96;93015.28;832063;70;32783;-79
2021/11/26 20:46:40;;;;;;;13.10;9.80;;;;;;;6.04;79.38;93011.81;833312;71;33283;-78
2021/11/26 21:16:13;;;;;;;15.00;10.20;;;;;;;6.43;78.46;93033.84;819684;71;30214;-79
2021/11/26 21:31:31;;;;;;;11.50;8.25;;;;;;;6.69;77.74;93002.72;822376;70;33292;-79
2021/11/26 21:46:13;;;;;;;11.38;8.75;;;;;;;7.09;76.43;92998.78;827907;71;30447;-78
2021/11/26 22:01:15;;;;;;;3.77;3.10;;;;;;;7.82;74.00;93008.73;817683;71;33032;-76
2021/11/26 22:16:12;;;;;;;2.90;2.02;;;;;;;9.00;69.64;92942.24;815997;71;30615;-77
2021/11/26 22:31:15;;;;;;;6.83;2.02;;;;;;;9.84;66.19;92964.59;827032;71;32628;-80
2021/11/26 22:46:08;;;;;;;1.85;1.75;;;;;;;10.28;63.34;92940.09;827928;71;29652;-77
2021/11/26 23:01:16;;;;;;;1.52;1.42;;;;;;;10.53;61.39;92952.72;820620;71;33035;-77
2021/11/26 23:16:11;;;;;;;2.62;1.52;;;;;;;10.73;60.30;92949.81;827980;71;30546;-78
2021/11/26 23:31:09;;;;;;;1.42;1.32;;;;;;;10.83;59.84;92957.80;827505;71;30529;-75
2021/11/26 23:46:29;;;;;;;1.30;1.30;;;;;;;10.93;59.21;92929.03;821033;71;32851;-78
